createdAt,value
2022-11-07T00:03:10.170Z,100320.06
2022-11-07T00:08:13.876Z,100332.09
2022-11-07T00:13:15.787Z,100338.06
2022-11-07T00:18:17.658Z,100337.72
2022-11-07T00:23:19.409Z,100337.22
2022-11-07T00:28:21.002Z,100334.47
2022-11-07T00:33:24.158Z,100324.16
2022-11-07T00:38:25.922Z,100351.28
2022-11-07T00:43:28.271Z,100355.91
2022-11-07T00:48:31.018Z,100367.94
2022-11-07T00:53:33.162Z,100375.63
2022-11-07T00:58:35.815Z,100365.03
2022-11-07T01:03:56.590Z,100370.31
2022-11-07T01:08:59.113Z,100377.53
2022-11-07T01:14:03.131Z,100373.44
2022-11-07T01:19:05.881Z,100384.81
2022-11-07T01:24:09.405Z,100396.88
2022-11-07T01:29:11.081Z,100389.66
2022-11-07T01:34:12.744Z,100403.78
2022-11-07T01:39:14.485Z,100409.81
2022-11-07T01:44:16.106Z,100396.75
2022-11-07T01:49:31.441Z,100401.22
2022-11-07T01:54:44.590Z,100411.53
2022-11-07T01:59:46.799Z,100392.97
2022-11-07T02:04:48.510Z,100396.38
2022-11-07T02:09:52.220Z,100395.53
2022-11-07T02:14:55.202Z,100405.28
2022-11-07T02:19:57.067Z,100409.94
2022-11-07T02:25:03.245Z,100410.41
2022-11-07T02:30:14.746Z,100409.56
2022-11-07T02:35:34.986Z,100402.72
2022-11-07T02:40:37.213Z,100417.53
2022-11-07T02:45:41.892Z,100418.72
2022-11-07T02:50:44.228Z,100410.03
2022-11-07T02:55:45.957Z,100415.72
2022-11-07T03:00:47.654Z,100422.72
2022-11-07T03:05:49.228Z,100417.88
2022-11-07T03:10:50.851Z,100423.97
2022-11-07T03:15:53.913Z,100416.19
2022-11-07T03:20:55.550Z,100416.19
2022-11-07T03:25:57.206Z,100422.16
2022-11-07T03:31:03.645Z,100435.72
2022-11-07T03:36:05.863Z,100423.38
2022-11-07T03:41:07.601Z,100430.22
2022-11-07T03:46:09.247Z,100427.47
2022-11-07T03:51:11.011Z,100428.13
2022-11-07T03:56:13.637Z,100443.78
2022-11-07T04:01:15.487Z,100443.22
2022-11-07T04:06:17.119Z,100445.28
2022-11-07T04:11:37.296Z,100446.72
2022-11-07T04:16:57.715Z,100452.13
2022-11-07T04:21:59.355Z,100440.84
2022-11-07T04:27:19.595Z,100432.41
2022-11-07T04:32:24.647Z,100418.84
2022-11-07T04:37:26.315Z,100422.63
2022-11-07T04:42:28.043Z,100430.72
2022-11-07T04:47:29.769Z,100438.78
2022-11-07T04:52:31.975Z,100436.69
2022-11-07T04:57:33.661Z,100452.53
2022-11-07T05:02:35.465Z,100445.59
2022-11-07T05:07:37.638Z,100441.78
2022-11-07T05:12:39.306Z,100442.53
2022-11-07T05:17:41.076Z,100448.72
2022-11-07T05:23:01.446Z,100443.53
2022-11-07T05:28:03.229Z,100438.03
2022-11-07T05:33:05.147Z,100442.84
2022-11-07T05:38:06.833Z,100439.44
2022-11-07T05:43:13.934Z,100433.63
2022-11-07T05:48:15.857Z,100453.38
2022-11-07T05:53:18.083Z,100450.13
2022-11-07T05:58:20.937Z,100459.88
2022-11-07T06:03:22.791Z,100462.94
2022-11-07T06:08:24.531Z,100467.97
2022-11-07T06:13:26.250Z,100471.84
2022-11-07T06:18:27.967Z,100467.22
2022-11-07T06:23:29.625Z,100476.50
2022-11-07T06:28:31.227Z,100475.94
2022-11-07T06:33:33.577Z,100476.59
2022-11-07T06:38:37.455Z,100479.09
2022-11-07T06:43:39.902Z,100474.03
2022-11-07T06:48:41.967Z,100483.34
2022-11-07T06:53:43.979Z,100479.94
2022-11-07T06:58:46.037Z,100483.34
2022-11-07T07:03:47.829Z,100488.44
2022-11-07T07:08:49.728Z,100485.53
2022-11-07T07:13:51.475Z,100486.84
2022-11-07T07:18:53.194Z,100481.19
2022-11-07T07:23:54.963Z,100501.09
2022-11-07T07:28:56.620Z,100516.53
2022-11-07T07:33:58.674Z,100519.50
2022-11-07T07:39:00.490Z,100524.59
2022-11-07T07:44:02.228Z,100529.75
2022-11-07T07:49:04.057Z,100523.84
2022-11-07T07:54:05.867Z,100545.03
2022-11-07T07:59:07.864Z,100551.53
2022-11-07T08:04:09.862Z,100562.84
2022-11-07T08:09:11.694Z,100571.41
2022-11-07T08:14:13.719Z,100577.38
2022-11-07T08:19:16.027Z,100579.59
2022-11-07T08:24:18.211Z,100587.09
2022-11-07T08:29:20.240Z,100575.03
2022-11-07T08:34:25.506Z,100580.63
2022-11-07T08:39:27.479Z,100595.19
2022-11-07T08:44:30.069Z,100607.78
2022-11-07T08:49:31.892Z,100605.53
2022-11-07T08:54:34.278Z,100618.16
2022-11-07T08:59:39.573Z,100611.22
2022-11-07T09:04:41.555Z,100618.56
2022-11-07T09:09:43.345Z,100616.06
2022-11-07T09:14:44.959Z,100628.03
2022-11-07T09:19:46.698Z,100621.78
2022-11-07T09:24:48.599Z,100615.56
2022-11-07T09:29:50.314Z,100623.38
2022-11-07T09:34:57.203Z,100634.28
2022-11-07T09:40:02.370Z,100640.00
2022-11-07T09:45:04.285Z,100636.56
2022-11-07T09:50:26.216Z,100654.44
2022-11-07T09:55:32.699Z,100663.38
2022-11-07T10:00:35.005Z,100666.50
2022-11-07T10:06:07.782Z,100659.75
2022-11-07T10:11:26.175Z,100677.13
2022-11-07T10:16:43.786Z,100662.66
2022-11-07T10:22:23.215Z,100670.09
2022-11-07T10:27:27.160Z,100677.13
2022-11-07T10:32:44.240Z,100684.53
2022-11-07T10:37:55.051Z,100685.59
2022-11-07T10:42:57.397Z,100700.91
2022-11-07T10:48:02.961Z,100699.66
2022-11-07T10:53:09.911Z,100706.88
2022-11-07T10:58:25.323Z,100703.91
2022-11-07T11:03:43.654Z,100699.38
2022-11-07T11:08:48.749Z,100700.41
2022-11-07T11:14:01.715Z,100689.31
2022-11-07T11:19:04.499Z,100698.91
2022-11-07T11:24:26.401Z,100698.25
2022-11-07T11:29:45.790Z,100695.28
2022-11-07T11:35:02.407Z,100698.03
2022-11-07T11:40:04.216Z,100698.44
2022-11-07T11:45:21.685Z,100690.63
2022-11-07T11:50:32.331Z,100697.19
2022-11-07T11:55:47.225Z,100694.53
2022-11-07T12:01:22.288Z,100701.75
2022-11-07T12:06:33.310Z,100701.09
2022-11-07T12:11:42.099Z,100695.56
2022-11-07T12:16:52.186Z,100686.72
2022-11-07T12:22:11.985Z,100695.47
2022-11-07T12:27:42.385Z,100693.66
2022-11-07T12:33:35.964Z,100692.59
2022-11-07T12:38:51.468Z,100685.63
2022-11-07T12:44:18.953Z,100685.03
2022-11-07T12:49:46.021Z,100682.94
2022-11-07T12:55:02.744Z,100685.13
2022-11-07T13:00:35.539Z,100685.50
2022-11-07T13:06:02.788Z,100678.50
2022-11-07T13:11:16.634Z,100674.88
2022-11-07T13:16:28.422Z,100678.28
2022-11-07T13:21:40.238Z,100675.72
2022-11-07T13:26:49.334Z,100668.72
2022-11-07T13:32:11.452Z,100674.28
2022-11-07T13:37:48.148Z,100675.53
2022-11-07T13:43:04.492Z,100668.97
2022-11-07T13:48:37.743Z,100668.47
2022-11-07T13:54:15.439Z,100664.22
2022-11-07T13:59:49.013Z,100653.59
2022-11-07T14:05:14.693Z,100659.50
2022-11-07T14:10:32.361Z,100664.81
2022-11-07T14:15:36.340Z,100669.69
2022-11-07T14:20:37.969Z,100661.59
2022-11-07T14:25:40.748Z,100662.06
2022-11-07T14:30:42.902Z,100672.25
2022-11-07T14:35:47.330Z,100670.53
2022-11-07T14:40:50.342Z,100660.56
2022-11-07T14:46:16.602Z,100660.34
2022-11-07T14:51:27.283Z,100667.75
2022-11-07T14:56:34.289Z,100662.91
2022-11-07T15:01:36.102Z,100668.81
2022-11-07T15:06:43.326Z,100658.84
2022-11-07T15:11:58.296Z,100661.59
2022-11-07T15:17:04.098Z,100662.84
2022-11-07T15:22:05.798Z,100659.22
2022-11-07T15:27:13.247Z,100662.84
2022-11-07T15:32:21.977Z,100653.06
2022-11-07T15:37:25.904Z,100656.66
2022-11-07T15:42:27.839Z,100643.47
2022-11-07T15:47:30.055Z,100647.91
2022-11-07T15:52:32.399Z,100650.19
2022-11-07T15:57:34.734Z,100654.69
2022-11-07T16:02:37.023Z,100657.25
2022-11-07T16:07:42.672Z,100659.78
2022-11-07T16:12:44.465Z,100669.13
2022-11-07T16:17:46.846Z,100660.66
2022-11-07T16:22:51.569Z,100657.31
2022-11-07T16:27:56.219Z,100655.59
2022-11-07T16:32:57.909Z,100661.34
2022-11-07T16:38:00.021Z,100662.19
2022-11-07T16:43:03.475Z,100659.69
2022-11-07T16:48:05.995Z,100662.44
2022-11-07T16:53:12.346Z,100659.13
2022-11-07T16:58:40.148Z,100652.72
2022-11-07T17:03:41.817Z,100662.53
2022-11-07T17:08:43.535Z,100655.75
2022-11-07T17:13:45.795Z,100652.81
2022-11-07T17:18:49.408Z,100656.22
2022-11-07T17:23:52.577Z,100662.22
2022-11-07T17:28:54.495Z,100659.25
2022-11-07T17:33:56.183Z,100663.91
2022-11-07T17:38:59.910Z,100672.47
2022-11-07T17:44:03.237Z,100682.63
2022-11-07T17:49:22.120Z,100692.88
2022-11-07T17:54:29.141Z,100689.94
2022-11-07T17:59:31.289Z,100686.31
2022-11-07T18:04:33.077Z,100692.97
2022-11-07T18:09:34.858Z,100694.06
2022-11-07T18:14:36.808Z,100679.88
2022-11-07T18:19:38.682Z,100688.81
2022-11-07T18:24:40.515Z,100677.78
2022-11-07T18:29:42.311Z,100686.34
2022-11-07T18:34:44.264Z,100687.19
2022-11-07T18:39:46.115Z,100679.94
2022-11-07T18:44:47.778Z,100691.88
2022-11-07T18:49:52.755Z,100685.28
2022-11-07T18:54:58.781Z,100689.94
2022-11-07T19:00:00.586Z,100689.28
2022-11-07T19:05:02.831Z,100694.34
2022-11-07T19:10:04.944Z,100690.28
2022-11-07T19:15:07.924Z,100692.63
2022-11-07T19:20:10.444Z,100695.59
2022-11-07T19:25:12.201Z,100695.13
2022-11-07T19:30:17.837Z,100701.69
2022-11-07T19:35:19.737Z,100698.50
2022-11-07T19:40:21.537Z,100695.91
2022-11-07T19:45:26.279Z,100693.81
2022-11-07T19:50:28.394Z,100695.25
2022-11-07T19:55:30.520Z,100688.91
2022-11-07T20:00:32.530Z,100695.25
2022-11-07T20:05:34.541Z,100690.78
2022-11-07T20:10:37.303Z,100690.78
2022-11-07T20:15:42.756Z,100692.69
2022-11-07T20:20:44.422Z,100691.19
2022-11-07T20:25:47.003Z,100686.03
2022-11-07T20:30:48.905Z,100693.09
2022-11-07T20:36:01.264Z,100692.88
2022-11-07T20:41:04.435Z,100699.06
2022-11-07T20:46:08.773Z,100691.25
2022-11-07T20:51:14.033Z,100690.22
2022-11-07T20:56:22.150Z,100692.09
2022-11-07T21:01:26.958Z,100692.09
2022-11-07T21:06:28.858Z,100693.63
2022-11-07T21:11:31.009Z,100695.13
2022-11-07T21:16:34.612Z,100705.97
2022-11-07T21:21:36.328Z,100700.47
2022-11-07T21:26:39.163Z,100703.66
2022-11-07T21:31:41.488Z,100707.13
2022-11-07T21:36:43.336Z,100702.63
2022-11-07T21:41:45.350Z,100706.88
2022-11-07T21:46:47.082Z,100695.47
2022-11-07T21:51:50.843Z,100692.09
2022-11-07T21:56:52.710Z,100696.97
2022-11-07T22:01:55.409Z,100685.75
2022-11-07T22:06:57.655Z,100694.88
2022-11-07T22:11:59.381Z,100700.38
2022-11-07T22:17:01.036Z,100692.09
2022-11-07T22:22:03.736Z,100698.69
2022-11-07T22:27:05.808Z,100686.53
2022-11-07T22:32:07.540Z,100686.72
2022-11-07T22:37:09.276Z,100679.09
2022-11-07T22:42:10.987Z,100696.06
2022-11-07T22:47:15.787Z,100681.22
2022-11-07T22:52:17.479Z,100672.66
2022-11-07T22:57:19.157Z,100668.00
2022-11-07T23:02:21.154Z,100656.31
2022-11-07T23:07:23.052Z,100662.03
2022-11-07T23:12:24.671Z,100664.38
2022-11-07T23:17:26.374Z,100660.94
2022-11-07T23:22:32.168Z,100658.59
2022-11-07T23:27:34.113Z,100660.28
2022-11-07T23:32:35.904Z,100647.94
2022-11-07T23:37:37.549Z,100645.97
2022-11-07T23:42:39.104Z,100643.22
2022-11-07T23:47:59.582Z,100635.16
2022-11-07T23:53:21.150Z,100631.66
2022-11-07T23:58:45.677Z,100628.47
